Time;durP1;ratioP1;P1;durP2;ratioP2;P2;SDS_P1;SDS_P2;PMS_P1;PMS_P2;Temp;Humidity;BMP_temperature;BMP_pressure;BME280_temperature;BME280_humidity;BME280_pressure;Samples;Min_cycle;Max_cycle;Signal;HPM_P1;HPM_P2
2023/03/11 07:51:27;;;;;;;8.52;2.15;;;11.20;99.90;;;;;;5107585;23;20238;-92
2023/03/11 07:53:28;;;;;;;11.82;3.05;;;11.00;99.90;;;;;;5053636;23;20161;-91
2023/03/11 07:55:29;;;;;;;10.02;2.50;;;11.20;99.90;;;;;;5065501;23;20143;-91
2023/03/11 07:57:47;;;;;;;;;;;;;;;;;;;;;
2023/03/11 07:59:53;;;;;;;10.07;2.45;;;12.40;99.90;;;;;;5071844;23;20192;-93
2023/03/11 08:02:04;;;;;;;9.40;2.20;;;12.80;99.90;;;;;;5048678;23;20181;-94
2023/03/11 08:04:10;;;;;;;7.32;2.63;;;12.40;99.90;;;;;;5071721;23;20176;-93
2023/03/11 08:07:26;;;;;;;;;;;;;;;;;;;;;
2023/03/11 08:09:59;;;;;;;;;;;;;;;;;;;;;
2023/03/11 08:12:24;;;;;;;14.75;2.88;;;13.60;99.90;;;;;;5071174;23;20260;-93
2023/03/11 08:15:03;;;;;;;10.48;2.58;;;14.20;99.90;;;;;;5048628;23;20231;-93
2023/03/11 08:17:22;;;;;;;;;;;;;;;;;;;;;
2023/03/11 08:24:19;;;;;;;;;;;;;;;;;;;;;
2023/03/11 08:27:00;;;;;;;7.90;3.15;;;16.30;99.90;;;;;;5097560;23;20620;-92
2023/03/11 08:29:16;;;;;;;8.70;2.50;;;16.70;99.90;;;;;;5048554;23;20217;-92
2023/03/11 08:36:00;;;;;;;10.45;2.47;;;16.60;99.90;;;;;;5014498;23;20163;-93
2023/03/11 08:38:34;;;;;;;7.45;2.58;;;15.70;99.90;;;;;;5030766;23;20593;-93
2023/03/11 08:41:11;;;;;;;;;;;;;;;;;;;;;
2023/03/11 08:44:04;;;;;;;6.43;2.15;;;14.10;99.90;;;;;;5070333;23;20161;-93
2023/03/11 08:46:56;;;;;;;10.18;2.63;;;14.40;99.90;;;;;;5074785;23;20161;-92
2023/03/11 08:49:04;;;;;;;10.65;3.03;;;15.00;99.90;;;;;;5046809;23;20161;-93
2023/03/11 08:51:32;;;;;;;11.48;3.10;;;16.10;99.90;;;;;;5048810;23;20209;-94
2023/03/11 08:57:06;;;;;;;14.82;2.78;;;15.90;99.90;;;;;;5096122;23;20232;-92
2023/03/11 08:59:34;;;;;;;10.25;2.78;;;14.70;99.90;;;;;;5071684;23;20161;-92
2023/03/11 09:02:29;;;;;;;11.50;2.83;;;15.50;99.90;;;;;;5073472;23;20166;-93
2023/03/11 09:05:47;;;;;;;9.43;2.65;;;16.50;99.90;;;;;;5073467;23;20164;-93
2023/03/11 09:08:32;;;;;;;10.40;3.15;;;15.50;99.90;;;;;;5096553;23;20157;-93
2023/03/11 09:18:01;;;;;;;;;;;;;;;;;;;;;
2023/03/11 09:20:57;;;;;;;10.40;2.65;;;17.10;99.90;;;;;;5043743;23;20173;-93
2023/03/11 09:24:07;;;;;;;;;;;;;;;;;;;;;
2023/03/11 09:29:56;;;;;;;7.38;2.03;;;15.70;99.90;;;;;;5010025;23;20157;-92
2023/03/11 09:32:03;;;;;;;11.77;2.10;;;16.60;99.90;;;;;;5047890;23;20202;-93
2023/03/11 09:34:06;;;;;;;8.88;1.48;;;16.50;99.90;;;;;;5048425;23;20150;-94
2023/03/11 09:36:13;;;;;;;6.63;1.67;;;16.50;99.90;;;;;;5047763;23;20178;-93
2023/03/11 09:38:14;;;;;;;10.57;1.90;;;16.50;99.90;;;;;;5048279;23;20151;-91
2023/03/11 09:40:24;;;;;;;6.78;1.60;;;16.10;99.90;;;;;;5048768;23;20162;-92
2023/03/11 09:42:48;;;;;;;8.48;1.77;;;15.50;99.90;;;;;;5061773;23;20201;-92
2023/03/11 09:45:26;;;;;;;9.63;1.70;;;15.30;99.90;;;;;;5069649;23;20162;-93
2023/03/11 09:47:50;;;;;;;11.32;1.58;;;15.10;99.90;;;;;;5021185;23;20151;-94
2023/03/11 09:50:17;;;;;;;10.38;1.65;;;14.60;99.90;;;;;;5058259;23;20241;-92
2023/03/11 09:52:36;;;;;;;7.30;1.80;;;14.60;99.90;;;;;;5054947;23;20284;-92
2023/03/11 09:54:41;;;;;;;7.00;1.95;;;15.70;99.90;;;;;;5046025;23;20251;-93
2023/03/11 09:56:43;;;;;;;9.32;1.73;;;15.50;99.90;;;;;;5070113;23;20153;-92
2023/03/11 09:58:53;;;;;;;7.47;1.27;;;15.00;99.90;;;;;;5070300;23;20179;-92
2023/03/11 10:00:54;;;;;;;7.60;1.50;;;14.80;99.90;;;;;;5046124;23;20180;-93
2023/03/11 10:02:55;;;;;;;8.63;1.17;;;14.20;99.90;;;;;;5045710;23;20256;-94
2023/03/11 10:05:25;;;;;;;15.43;1.15;;;13.60;99.90;;;;;;5045964;23;20154;-91
2023/03/11 10:07:32;;;;;;;6.30;1.33;;;13.00;99.90;;;;;;5045715;23;20480;-91
2023/03/11 10:09:53;;;;;;;10.10;1.33;;;12.50;99.90;;;;;;5045888;23;20161;-91
2023/03/11 10:12:08;;;;;;;9.55;1.83;;;12.30;99.90;;;;;;5045746;23;20257;-91
2023/03/11 10:14:12;;;;;;;7.00;1.73;;;11.40;99.90;;;;;;5070218;23;20241;-90
2023/03/11 10:16:41;;;;;;;7.88;1.23;;;11.20;99.90;;;;;;5070022;23;20643;-90
2023/03/11 10:18:42;;;;;;;8.48;1.55;;;11.20;99.90;;;;;;5045826;23;20165;-90
2023/03/11 10:20:45;;;;;;;9.43;1.42;;;11.00;99.90;;;;;;5069975;23;20158;-89
2023/03/11 10:23:05;;;;;;;6.88;1.20;;;11.50;99.90;;;;;;5045575;23;20185;-90
2023/03/11 10:25:19;;;;;;;7.95;1.33;;;11.80;99.90;;;;;;5069789;23;20150;-91
2023/03/11 10:27:34;;;;;;;6.85;1.42;;;12.10;99.90;;;;;;5045563;23;20236;-90
2023/03/11 10:29:56;;;;;;;6.93;1.30;;;11.90;99.90;;;;;;5045577;23;20158;-92
2023/03/11 10:32:20;;;;;;;9.80;1.48;;;11.70;99.90;;;;;;5069662;23;20197;-92
2023/03/11 10:34:56;;;;;;;4.90;1.00;;;11.00;99.90;;;;;;5045841;23;20151;-91
2023/03/11 10:37:02;;;;;;;7.20;0.93;;;10.80;99.90;;;;;;5045597;23;20162;-91
2023/03/11 10:39:04;;;;;;;10.00;1.42;;;10.50;99.90;;;;;;5070157;23;20157;-92
2023/03/11 10:41:26;;;;;;;6.10;1.00;;;11.00;99.90;;;;;;5045748;23;20633;-92
2023/03/11 10:43:33;;;;;;;6.25;1.45;;;11.50;99.90;;;;;;5045700;23;20158;-91
2023/03/11 10:45:42;;;;;;;5.80;1.27;;;11.10;99.90;;;;;;5069704;23;20161;-91
2023/03/11 10:47:42;;;;;;;7.28;1.25;;;11.30;99.90;;;;;;5045462;23;20233;-90
2023/03/11 10:49:43;;;;;;;9.20;1.17;;;11.60;99.90;;;;;;5045645;23;20157;-91
2023/03/11 10:51:47;;;;;;;11.80;1.10;;;11.70;99.90;;;;;;5045400;23;20194;-92
2023/03/11 10:53:52;;;;;;;8.27;1.17;;;11.70;99.90;;;;;;5045454;23;20222;-90
2023/03/11 10:55:55;;;;;;;6.40;1.17;;;11.90;99.90;;;;;;5069324;23;20158;-93
2023/03/11 10:58:13;;;;;;;6.32;1.10;;;12.10;99.90;;;;;;5045498;23;20161;-91
2023/03/11 11:00:29;;;;;;;8.98;1.05;;;11.90;99.90;;;;;;5045417;23;20218;-91
2023/03/11 11:02:36;;;;;;;7.47;1.50;;;11.90;99.90;;;;;;5045181;23;20234;-92
2023/03/11 11:04:39;;;;;;;14.90;1.40;;;12.00;99.90;;;;;;5045372;23;20165;-90
2023/03/11 11:06:40;;;;;;;9.93;1.48;;;11.90;99.90;;;;;;5045602;23;20305;-92
2023/03/11 11:08:40;;;;;;;7.75;1.50;;;11.50;99.90;;;;;;5045473;23;20159;-91
2023/03/11 11:10:55;;;;;;;11.70;1.58;;;11.30;99.90;;;;;;5045373;23;20613;-90
2023/03/11 11:12:58;;;;;;;7.28;0.93;;;10.90;99.90;;;;;;5045420;23;20529;-91
2023/03/11 11:14:59;;;;;;;11.70;1.30;;;10.70;99.90;;;;;;5045457;23;20597;-92
2023/03/11 11:17:00;;;;;;;8.40;1.25;;;10.50;99.90;;;;;;5069629;23;20168;-91
2023/03/11 11:19:06;;;;;;;5.13;0.77;;;10.80;99.90;;;;;;5045216;23;20146;-91
2023/03/11 11:21:26;;;;;;;10.20;1.27;;;11.10;99.90;;;;;;5069522;23;20229;-92
2023/03/11 11:23:30;;;;;;;8.45;1.10;;;11.10;99.90;;;;;;5045385;23;20162;-92
2023/03/11 11:25:37;;;;;;;10.18;1.35;;;11.20;99.90;;;;;;5069230;23;20168;-91
2023/03/11 11:27:56;;;;;;;8.98;1.70;;;11.10;99.90;;;;;;5044968;23;20162;-92
2023/03/11 11:30:15;;;;;;;8.45;1.30;;;11.50;99.90;;;;;;5045250;23;20157;-91
2023/03/11 11:32:22;;;;;;;8.82;1.20;;;11.50;99.90;;;;;;5069222;23;20280;-91
2023/03/11 11:34:29;;;;;;;7.75;1.25;;;11.80;99.90;;;;;;5045447;23;20229;-91
2023/03/11 11:36:38;;;;;;;6.50;1.48;;;11.90;99.90;;;;;;5045408;23;20158;-92
2023/03/11 11:38:39;;;;;;;6.93;1.15;;;11.80;99.90;;;;;;5069600;23;20179;-92
2023/03/11 11:40:40;;;;;;;7.53;1.25;;;12.00;99.90;;;;;;5045159;23;20161;-93
2023/03/11 11:42:50;;;;;;;7.40;1.10;;;11.60;99.90;;;;;;5044734;23;20188;-93
2023/03/11 11:44:59;;;;;;;13.20;1.00;;;11.50;99.90;;;;;;5045064;23;20158;-91
2023/03/11 11:47:21;;;;;;;9.20;1.05;;;11.60;99.90;;;;;;5045055;23;20509;-92
2023/03/11 11:49:27;;;;;;;11.48;1.10;;;12.20;99.90;;;;;;5044966;23;20166;-90
2023/03/11 11:51:40;;;;;;;4.53;1.08;;;12.20;99.90;;;;;;5068978;23;20260;-92
2023/03/11 11:53:45;;;;;;;5.97;1.17;;;12.00;99.90;;;;;;5045022;23;20257;-91
2023/03/11 11:55:48;;;;;;;11.57;1.10;;;11.10;99.90;;;;;;5045054;23;20654;-91
2023/03/11 11:57:50;;;;;;;8.30;1.20;;;10.80;99.90;;;;;;5044925;23;20255;-92
2023/03/11 11:59:51;;;;;;;9.65;1.60;;;11.00;99.90;;;;;;5045094;23;20157;-91
2023/03/11 12:01:58;;;;;;;4.35;0.80;;;10.80;99.90;;;;;;5044982;23;20185;-91
2023/03/11 12:04:01;;;;;;;8.07;1.48;;;10.90;99.90;;;;;;5044939;23;20162;-91
2023/03/11 12:06:14;;;;;;;7.57;1.05;;;11.00;99.90;;;;;;5069320;23;20244;-91
2023/03/11 12:08:15;;;;;;;9.82;0.65;;;11.10;99.90;;;;;;5045014;23;20189;-90
2023/03/11 12:10:21;;;;;;;7.35;1.20;;;11.40;99.90;;;;;;5044990;23;20155;-91
2023/03/11 12:12:39;;;;;;;6.15;1.13;;;11.40;99.90;;;;;;5044406;23;20630;-91
2023/03/11 12:15:19;;;;;;;10.95;1.33;;;11.30;99.90;;;;;;5044873;23;20154;-92
2023/03/11 12:17:23;;;;;;;6.65;1.05;;;11.50;99.90;;;;;;5052818;23;20161;-91
2023/03/11 12:19:38;;;;;;;8.52;1.10;;;11.00;99.90;;;;;;5044654;23;20154;-91
2023/03/11 12:21:54;;;;;;;5.90;1.02;;;10.60;99.90;;;;;;5045135;23;20182;-90
2023/03/11 12:24:12;;;;;;;8.77;1.00;;;11.00;99.90;;;;;;5069219;23;20201;-92
2023/03/11 12:26:21;;;;;;;8.20;1.27;;;11.30;99.90;;;;;;5045383;23;20165;-92
2023/03/11 12:28:44;;;;;;;8.57;1.10;;;11.50;99.90;;;;;;5044835;23;20162;-92
2023/03/11 12:30:51;;;;;;;8.60;1.48;;;11.50;99.90;;;;;;5069362;23;20149;-93
2023/03/11 12:32:57;;;;;;;4.55;0.80;;;11.60;99.90;;;;;;5044805;23;20193;-92
2023/03/11 12:35:26;;;;;;;7.82;1.20;;;11.40;99.90;;;;;;5068637;23;20157;-92
2023/03/11 12:37:27;;;;;;;9.63;0.90;;;11.60;99.90;;;;;;5034047;23;20158;-93
2023/03/11 12:39:33;;;;;;;6.43;1.20;;;11.40;99.90;;;;;;5069168;23;20249;-92
2023/03/11 12:41:38;;;;;;;6.05;1.17;;;11.60;99.90;;;;;;5068922;23;20177;-94
2023/03/11 12:43:39;;;;;;;7.88;1.10;;;11.70;99.90;;;;;;5044974;23;20178;-92
2023/03/11 12:45:51;;;;;;;7.60;1.55;;;11.40;99.90;;;;;;5044782;23;20622;-92
2023/03/11 12:48:26;;;;;;;10.63;1.02;;;11.40;99.90;;;;;;5044976;23;20478;-91
2023/03/11 12:50:42;;;;;;;6.70;1.08;;;11.40;99.90;;;;;;5044898;23;20201;-92
2023/03/11 12:52:53;;;;;;;11.27;1.10;;;11.40;99.90;;;;;;5069313;23;20189;-92
2023/03/11 12:54:57;;;;;;;7.75;0.90;;;11.20;99.90;;;;;;5045084;23;20680;-93
2023/03/11 12:57:00;;;;;;;6.57;1.00;;;11.40;99.90;;;;;;5045315;23;20166;-91
2023/03/11 12:59:16;;;;;;;6.57;0.90;;;11.40;99.90;;;;;;5045416;23;20254;-93
2023/03/11 13:01:32;;;;;;;7.45;1.27;;;11.30;99.90;;;;;;5044847;23;20162;-93
2023/03/11 13:03:44;;;;;;;6.90;1.20;;;11.40;99.90;;;;;;5068798;23;20158;-93
2023/03/11 13:06:21;;;;;;;11.70;1.40;;;11.00;99.90;;;;;;5045310;23;20166;-94
2023/03/11 13:08:48;;;;;;;14.57;1.10;;;11.20;99.90;;;;;;5045004;23;20182;-91
2023/03/11 13:10:54;;;;;;;6.88;1.27;;;11.10;99.90;;;;;;5069037;23;20184;-93
2023/03/11 13:12:56;;;;;;;7.22;1.10;;;11.10;99.90;;;;;;5044659;23;20178;-92
2023/03/11 13:15:15;;;;;;;9.88;1.35;;;11.10;99.90;;;;;;5044756;23;20158;-91
2023/03/11 13:17:24;;;;;;;6.28;1.05;;;11.20;99.90;;;;;;5044854;23;20185;-93
2023/03/11 13:19:25;;;;;;;6.70;1.13;;;11.50;99.90;;;;;;5045065;23;20157;-93
2023/03/11 13:21:28;;;;;;;6.78;1.30;;;11.20;99.90;;;;;;5068906;23;20633;-92
2023/03/11 13:23:39;;;;;;;8.75;1.40;;;11.30;99.90;;;;;;5044787;23;20163;-92
2023/03/11 13:25:52;;;;;;;11.20;1.42;;;11.60;99.90;;;;;;5068990;23;20240;-93
2023/03/11 13:28:17;;;;;;;7.28;1.20;;;11.70;99.90;;;;;;5044898;23;20162;-93
2023/03/11 13:30:23;;;;;;;10.73;1.38;;;11.80;99.90;;;;;;5044890;23;20170;-92
2023/03/11 13:32:45;;;;;;;10.10;1.10;;;11.80;99.90;;;;;;5068835;23;20213;-91
2023/03/11 13:35:04;;;;;;;7.82;1.20;;;11.40;99.90;;;;;;5068712;23;20474;-94
2023/03/11 13:37:04;;;;;;;9.55;1.55;;;11.20;99.90;;;;;;5044902;23;20162;-92
2023/03/11 13:39:17;;;;;;;7.68;1.13;;;10.70;99.90;;;;;;5044700;23;20161;-92
2023/03/11 13:41:30;;;;;;;10.93;1.48;;;10.30;99.90;;;;;;5044476;23;20213;-94
2023/03/11 13:43:31;;;;;;;6.35;1.08;;;10.00;99.90;;;;;;5044689;23;20720;-92
2023/03/11 13:45:37;;;;;;;8.93;1.42;;;10.00;99.90;;;;;;5045166;23;20150;-95
2023/03/11 13:47:43;;;;;;;9.35;1.40;;;10.00;99.90;;;;;;5068957;23;20185;-92
2023/03/11 13:50:04;;;;;;;13.02;1.40;;;10.30;99.90;;;;;;5045076;23;20208;-92
2023/03/11 13:52:11;;;;;;;8.68;1.10;;;10.50;99.90;;;;;;5045783;23;20229;-92
2023/03/11 13:54:21;;;;;;;8.93;1.60;;;10.10;99.90;;;;;;5045945;23;20161;-92
2023/03/11 13:56:26;;;;;;;6.88;1.25;;;10.00;99.90;;;;;;5045943;23;20194;-92
2023/03/11 13:58:28;;;;;;;9.13;1.30;;;10.00;99.90;;;;;;5070428;23;20160;-92
2023/03/11 14:00:30;;;;;;;9.75;1.48;;;10.20;99.90;;;;;;5070386;23;20208;-92
2023/03/11 14:02:30;;;;;;;9.05;1.05;;;10.20;99.90;;;;;;5045908;23;20533;-93
2023/03/11 14:04:34;;;;;;;5.45;0.82;;;9.90;99.90;;;;;;5046155;23;20162;-93
2023/03/11 14:06:35;;;;;;;6.18;1.40;;;9.90;99.90;;;;;;5070556;23;20149;-93
2023/03/11 14:08:37;;;;;;;5.45;1.27;;;9.70;99.90;;;;;;5070446;23;20193;-93
2023/03/11 14:10:38;;;;;;;9.23;1.10;;;9.90;99.90;;;;;;5070375;23;20160;-92
2023/03/11 14:12:39;;;;;;;4.57;1.17;;;10.00;99.90;;;;;;5070348;23;20200;-92
2023/03/11 14:14:49;;;;;;;6.47;1.20;;;9.80;99.90;;;;;;5070128;23;20154;-92
2023/03/11 14:16:50;;;;;;;4.38;0.95;;;9.90;99.90;;;;;;5045777;23;20158;-92
2023/03/11 14:19:00;;;;;;;16.55;1.17;;;9.90;99.90;;;;;;5046078;23;20164;-93
2023/03/11 14:21:02;;;;;;;8.45;1.08;;;9.90;99.90;;;;;;5045769;23;20181;-91
2023/03/11 14:23:03;;;;;;;3.55;0.95;;;10.10;99.90;;;;;;5069967;23;20180;-92
2023/03/11 14:25:08;;;;;;;11.32;3.90;;;10.20;99.90;;;;;;5046065;23;20155;-92
2023/03/11 14:27:09;;;;;;;6.82;1.35;;;10.20;99.90;;;;;;5045956;23;20155;-91
2023/03/11 14:29:16;;;;;;;12.55;1.17;;;10.20;99.90;;;;;;5045839;23;20154;-92
2023/03/11 14:31:29;;;;;;;6.70;1.10;;;10.20;99.90;;;;;;5070050;23;20207;-93
2023/03/11 14:33:30;;;;;;;6.72;1.30;;;10.20;99.90;;;;;;5045472;23;20154;-92
2023/03/11 14:35:32;;;;;;;6.50;1.30;;;9.90;99.90;;;;;;5045899;23;20170;-91
2023/03/11 14:37:37;;;;;;;10.63;1.23;;;10.20;99.90;;;;;;5045873;23;20284;-92
2023/03/11 14:39:44;;;;;;;9.60;1.10;;;10.30;99.90;;;;;;5070182;23;20158;-91
2023/03/11 14:41:44;;;;;;;7.82;1.33;;;10.60;99.90;;;;;;5045419;23;20297;-92
2023/03/11 14:43:49;;;;;;;7.18;0.82;;;10.80;99.90;;;;;;5045513;23;20150;-92
2023/03/11 14:45:51;;;;;;;7.53;1.25;;;10.90;99.90;;;;;;5070243;23;20161;-92
2023/03/11 14:47:55;;;;;;;5.45;1.17;;;11.00;99.90;;;;;;5045836;23;20190;-92
2023/03/11 14:49:56;;;;;;;6.65;1.30;;;11.00;99.90;;;;;;5045785;23;20294;-91
2023/03/11 14:52:06;;;;;;;6.15;1.27;;;10.90;99.90;;;;;;5045367;23;20194;-92
2023/03/11 14:54:23;;;;;;;6.90;1.33;;;10.70;99.90;;;;;;5045757;23;20162;-92
2023/03/11 14:56:26;;;;;;;7.00;1.50;;;10.80;99.90;;;;;;5045526;23;20160;-92
2023/03/11 14:58:40;;;;;;;7.45;0.95;;;10.60;99.90;;;;;;5045448;23;20154;-91
2023/03/11 15:01:13;;;;;;;4.97;1.20;;;10.80;99.90;;;;;;5045174;23;20193;-91
2023/03/11 15:03:32;;;;;;;10.52;1.25;;;10.90;99.90;;;;;;5045620;23;20350;-91
2023/03/11 15:05:40;;;;;;;8.55;1.23;;;11.00;99.90;;;;;;5045819;23;20170;-92
2023/03/11 15:07:42;;;;;;;3.72;1.02;;;11.10;99.90;;;;;;5045726;23;20217;-92
2023/03/11 15:09:43;;;;;;;8.50;1.10;;;11.20;99.90;;;;;;5045784;23;20161;-91
2023/03/11 15:11:45;;;;;;;5.15;1.08;;;11.20;99.90;;;;;;5045655;23;20210;-91
2023/03/11 15:13:49;;;;;;;5.30;0.98;;;11.20;99.90;;;;;;5045719;23;20237;-90
2023/03/11 15:15:58;;;;;;;5.72;1.08;;;11.10;99.90;;;;;;5045349;23;20155;-92
2023/03/11 15:17:59;;;;;;;6.65;1.10;;;11.10;99.90;;;;;;5045339;23;20146;-92
2023/03/11 15:20:00;;;;;;;8.43;1.42;;;11.10;99.90;;;;;;5069717;23;20189;-93
2023/03/11 15:22:20;;;;;;;6.18;1.10;;;11.30;99.90;;;;;;5045504;23;20177;-92
2023/03/11 15:24:24;;;;;;;3.35;0.90;;;11.30;99.90;;;;;;5045378;23;20194;-92
2023/03/11 15:26:30;;;;;;;5.50;0.95;;;11.50;99.90;;;;;;5069928;23;20530;-93
2023/03/11 15:28:33;;;;;;;4.20;1.00;;;11.30;99.90;;;;;;5045102;23;20229;-91
2023/03/11 15:30:33;;;;;;;6.07;1.17;;;11.30;99.90;;;;;;5045175;23;20161;-93
2023/03/11 15:32:40;;;;;;;6.55;1.20;;;11.00;99.90;;;;;;5045200;23;20178;-91
2023/03/11 15:34:41;;;;;;;3.28;1.10;;;10.70;99.90;;;;;;5045484;23;20178;-91
2023/03/11 15:36:58;;;;;;;8.90;1.35;;;10.80;99.90;;;;;;5069495;23;20161;-92
2023/03/11 15:39:13;;;;;;;7.07;2.35;;;10.80;99.90;;;;;;5045420;23;20154;-92
2023/03/11 15:43:23;;;;;;;9.63;1.10;;;11.10;99.90;;;;;;5045321;23;20217;-90
2023/03/11 15:45:24;;;;;;;9.45;0.82;;;11.30;99.90;;;;;;5021581;23;20155;-91
2023/03/11 15:47:24;;;;;;;7.35;1.05;;;11.10;99.90;;;;;;5021557;23;20147;-90
2023/03/11 15:49:27;;;;;;;17.42;1.80;;;10.80;99.90;;;;;;4997656;23;20147;-91
2023/03/11 15:51:27;;;;;;;5.72;1.10;;;10.70;99.90;;;;;;5021304;23;20202;-89
2023/03/11 15:53:29;;;;;;;8.02;1.20;;;10.60;99.90;;;;;;4997635;23;20195;-90
2023/03/11 15:55:30;;;;;;;6.20;1.02;;;10.60;99.90;;;;;;5021333;23;20182;-90
2023/03/11 15:57:30;;;;;;;4.75;1.00;;;10.50;99.90;;;;;;4997560;23;20207;-90
2023/03/11 15:59:33;;;;;;;6.57;1.05;;;10.30;99.90;;;;;;5021110;23;20622;-90
2023/03/11 16:01:33;;;;;;;6.38;1.13;;;10.10;99.90;;;;;;4997365;23;20179;-89
2023/03/11 16:03:34;;;;;;;3.85;0.90;;;10.20;99.90;;;;;;4997840;23;20164;-89
2023/03/11 16:05:35;;;;;;;6.78;1.13;;;10.20;99.90;;;;;;4997412;23;20196;-88
2023/03/11 16:07:35;;;;;;;7.68;1.38;;;10.30;99.90;;;;;;4997961;23;20152;-89
2023/03/11 16:09:36;;;;;;;7.60;1.30;;;10.50;99.90;;;;;;5021328;23;20237;-89
2023/03/11 16:11:38;;;;;;;6.60;1.20;;;10.60;99.90;;;;;;4997385;23;20214;-92
2023/03/11 16:13:39;;;;;;;8.93;1.98;;;10.60;99.90;;;;;;5021159;23;20159;-88
2023/03/11 16:15:41;;;;;;;9.23;1.50;;;10.70;99.90;;;;;;5021680;23;20645;-90
2023/03/11 16:17:41;;;;;;;8.70;1.33;;;10.50;99.90;;;;;;4998070;23;20160;-88
2023/03/11 16:19:42;;;;;;;8.45;1.70;;;10.30;99.90;;;;;;5021279;23;20537;-88
2023/03/11 16:21:48;;;;;;;7.53;1.65;;;10.40;99.90;;;;;;4997396;23;20175;-88
2023/03/11 16:23:49;;;;;;;6.10;1.33;;;9.90;99.90;;;;;;4997595;23;20187;-88
2023/03/11 16:25:54;;;;;;;7.93;1.30;;;9.70;99.90;;;;;;5021375;23;20194;-92
2023/03/11 16:27:56;;;;;;;9.40;1.42;;;9.80;99.90;;;;;;4997234;23;20195;-90
2023/03/11 16:29:57;;;;;;;8.60;1.50;;;10.00;99.90;;;;;;4997087;23;20242;-89
2023/03/11 16:31:58;;;;;;;13.48;1.90;;;10.10;99.90;;;;;;4997224;23;20259;-89
2023/03/11 16:33:58;;;;;;;6.75;1.60;;;10.10;99.90;;;;;;4997634;23;20493;-88
2023/03/11 16:35:59;;;;;;;7.60;1.50;;;10.20;99.90;;;;;;5045168;23;20147;-89
2023/03/11 16:38:00;;;;;;;5.88;1.35;;;10.30;99.90;;;;;;5021271;23;20155;-88
2023/03/11 16:40:01;;;;;;;11.32;1.85;;;10.20;99.90;;;;;;4997407;23;20203;-88
2023/03/11 16:42:01;;;;;;;8.52;1.48;;;10.20;99.90;;;;;;5021004;23;20190;-91
2023/03/11 16:44:02;;;;;;;6.97;1.40;;;10.20;99.90;;;;;;4997513;23;20216;-87
2023/03/11 16:46:03;;;;;;;7.32;1.60;;;10.00;99.90;;;;;;5020806;23;20211;-89
2023/03/11 16:48:04;;;;;;;5.65;1.60;;;9.90;99.90;;;;;;4997456;23;20560;-91
2023/03/11 16:50:06;;;;;;;5.88;1.27;;;9.90;99.90;;;;;;4997626;23;20147;-89
2023/03/11 16:52:06;;;;;;;9.82;1.80;;;9.70;99.90;;;;;;4997153;23;20199;-92
2023/03/11 16:54:07;;;;;;;7.30;1.65;;;9.90;99.90;;;;;;5021353;23;20615;-90
2023/03/11 16:56:08;;;;;;;6.07;1.60;;;10.00;99.90;;;;;;4997660;23;20207;-89
2023/03/11 16:58:09;;;;;;;11.50;1.50;;;10.10;99.90;;;;;;5021161;23;20154;-89
2023/03/11 17:00:11;;;;;;;10.60;1.77;;;9.90;99.90;;;;;;5021154;23;20577;-88
2023/03/11 17:02:12;;;;;;;5.10;1.25;;;9.90;99.90;;;;;;4997134;23;20175;-89
2023/03/11 17:04:12;;;;;;;8.43;1.40;;;9.80;99.90;;;;;;4997392;23;20156;-90
2023/03/11 17:06:14;;;;;;;5.43;1.67;;;9.70;99.90;;;;;;4997171;23;20246;-89
2023/03/11 17:08:17;;;;;;;5.93;1.67;;;9.60;99.90;;;;;;5020926;23;20242;-89
2023/03/11 17:10:17;;;;;;;11.07;1.70;;;9.60;99.90;;;;;;4997266;23;20219;-90
2023/03/11 17:12:18;;;;;;;10.45;1.70;;;9.70;99.90;;;;;;4997375;23;20580;-90
2023/03/11 17:14:19;;;;;;;6.50;1.77;;;9.60;99.90;;;;;;4997670;23;20198;-91
2023/03/11 17:16:20;;;;;;;9.77;1.67;;;9.60;99.90;;;;;;4997286;23;20247;-90
2023/03/11 17:18:20;;;;;;;11.50;2.72;;;9.60;99.90;;;;;;5020933;23;20159;-92
2023/03/11 17:20:21;;;;;;;9.70;1.98;;;9.50;99.90;;;;;;4997320;23;20156;-92
2023/03/11 17:22:22;;;;;;;8.48;1.70;;;9.50;99.90;;;;;;5020671;23;20179;-91
2023/03/11 17:24:22;;;;;;;11.93;1.90;;;9.40;99.90;;;;;;4997340;23;20516;-91
2023/03/11 17:26:26;;;;;;;4.82;1.77;;;9.50;99.90;;;;;;4998838;23;20620;-90
2023/03/11 17:28:27;;;;;;;10.73;2.05;;;9.50;99.90;;;;;;4998955;23;20164;-90
2023/03/11 17:30:28;;;;;;;13.77;2.42;;;9.40;99.90;;;;;;4998961;23;20159;-89
2023/03/11 17:48:28;;;;;;;7.45;2.08;;;8.70;99.90;;;;;;5070737;23;20650;-93
2023/03/11 17:50:28;;;;;;;9.13;2.25;;;8.60;99.90;;;;;;5046291;23;20162;-92
2023/03/11 17:52:29;;;;;;;8.77;2.03;;;8.70;99.90;;;;;;5022269;23;20194;-92
2023/03/11 17:54:30;;;;;;;14.07;1.90;;;8.70;99.90;;;;;;5022461;23;20211;-92
2023/03/11 18:04:12;;;;;;;9.55;1.60;;;8.70;99.90;;;;;;5099169;23;20206;-95
2023/03/11 18:06:37;;;;;;;15.23;2.42;;;8.60;99.90;;;;;;5081178;23;20153;-92
2023/03/11 18:09:06;;;;;;;9.38;2.40;;;8.50;99.90;;;;;;5081221;23;20173;-93
2023/03/11 18:11:12;;;;;;;9.30;2.38;;;8.60;99.90;;;;;;5083451;23;20699;-93
2023/03/11 18:13:18;;;;;;;6.43;2.08;;;8.50;99.90;;;;;;5084753;23;20122;-94
2023/03/11 18:15:23;;;;;;;12.23;2.33;;;8.40;99.90;;;;;;5061850;23;20150;-94
2023/03/11 18:17:46;;;;;;;12.45;2.40;;;8.50;99.90;;;;;;5059920;23;20242;-94
2023/03/11 18:19:48;;;;;;;8.18;2.15;;;8.40;99.90;;;;;;5083774;23;20177;-93
2023/03/11 18:21:49;;;;;;;11.20;2.50;;;8.30;99.90;;;;;;5061427;23;20163;-92
2023/03/11 18:23:59;;;;;;;18.30;2.70;;;8.10;99.90;;;;;;5082315;23;20153;-93
2023/03/11 18:26:03;;;;;;;9.23;2.33;;;8.00;99.90;;;;;;5058936;23;20204;-92
2023/03/11 18:28:07;;;;;;;8.10;2.70;;;7.90;99.90;;;;;;5059558;23;20158;-93
2023/03/11 18:30:35;;;;;;;7.03;2.67;;;8.00;99.90;;;;;;5060213;23;20154;-94
2023/03/11 18:32:36;;;;;;;12.73;3.15;;;8.10;99.90;;;;;;5057932;23;20194;-92
2023/03/11 18:35:00;;;;;;;10.13;2.90;;;8.00;99.90;;;;;;5086250;23;20157;-93
2023/03/11 18:37:01;;;;;;;12.65;4.20;;;8.00;99.90;;;;;;5057552;23;20162;-93
2023/03/11 18:39:20;;;;;;;14.93;4.80;;;8.00;99.90;;;;;;5056063;23;20182;-90
2023/03/11 18:41:25;;;;;;;11.25;4.10;;;8.00;99.90;;;;;;5082368;23;20150;-91
2023/03/11 18:43:45;;;;;;;12.98;4.38;;;8.00;99.90;;;;;;5058565;23;20154;-92
2023/03/11 18:45:46;;;;;;;16.35;3.63;;;8.10;99.90;;;;;;5054745;23;20245;-90
2023/03/11 18:48:09;;;;;;;9.95;3.38;;;8.10;99.90;;;;;;5084826;23;20130;-92
2023/03/11 18:50:11;;;;;;;13.18;3.95;;;8.20;99.90;;;;;;5081648;23;20189;-92
2023/03/11 18:52:19;;;;;;;15.52;3.80;;;8.10;99.90;;;;;;5086210;23;20204;-93
2023/03/11 18:54:20;;;;;;;9.77;4.45;;;8.10;99.90;;;;;;5058217;23;20186;-93
2023/03/11 18:56:24;;;;;;;13.82;4.72;;;8.10;99.90;;;;;;5059811;23;20161;-93
2023/03/11 18:58:40;;;;;;;11.38;4.78;;;8.10;99.90;;;;;;5086541;23;20157;-93
2023/03/11 19:00:44;;;;;;;13.77;4.65;;;8.10;99.90;;;;;;5085938;23;20754;-93
2023/03/11 19:02:50;;;;;;;20.10;4.50;;;8.10;99.90;;;;;;5059975;23;20188;-94
2023/03/11 19:04:54;;;;;;;14.48;4.70;;;8.10;99.90;;;;;;5058360;23;20197;-92
2023/03/11 19:06:55;;;;;;;13.27;4.40;;;8.00;99.90;;;;;;5058370;23;20163;-92
2023/03/11 19:08:58;;;;;;;16.27;4.43;;;8.00;99.90;;;;;;5057787;23;20178;-91
2023/03/11 19:10:59;;;;;;;12.13;4.03;;;7.80;99.90;;;;;;5060836;23;20715;-92
2023/03/11 19:13:02;;;;;;;13.35;4.63;;;7.80;99.90;;;;;;5085641;23;20245;-93
2023/03/11 19:15:18;;;;;;;15.13;4.55;;;7.80;99.90;;;;;;5083680;23;20170;-92
2023/03/11 19:17:20;;;;;;;17.88;4.60;;;7.80;99.90;;;;;;5059930;23;20198;-91
2023/03/11 19:19:21;;;;;;;11.90;4.15;;;7.70;99.90;;;;;;5062347;23;20217;-92
2023/03/11 19:21:22;;;;;;;16.05;5.28;;;7.70;99.90;;;;;;5060511;23;20159;-91
2023/03/11 19:23:23;;;;;;;12.68;5.00;;;7.80;99.90;;;;;;5086120;23;20141;-92
2023/03/11 19:25:44;;;;;;;13.07;5.18;;;7.80;99.90;;;;;;5084075;23;20171;-91
2023/03/11 19:27:45;;;;;;;14.55;6.50;;;7.80;99.90;;;;;;5108628;23;20153;-93
2023/03/11 19:29:46;;;;;;;17.75;6.32;;;7.90;99.90;;;;;;5059410;23;20162;-93
2023/03/11 19:31:49;;;;;;;20.42;6.63;;;7.90;99.90;;;;;;5061674;23;20222;-92
2023/03/11 19:33:50;;;;;;;18.10;6.82;;;7.80;99.90;;;;;;5059615;23;20188;-93
2023/03/11 19:36:03;;;;;;;15.80;7.05;;;7.70;99.90;;;;;;5085583;23;20161;-92
2023/03/11 19:38:03;;;;;;;15.18;5.80;;;7.70;99.90;;;;;;5058259;23;20188;-93
2023/03/11 19:40:15;;;;;;;13.93;5.72;;;7.80;99.90;;;;;;5083654;23;20149;-92
2023/03/11 19:42:15;;;;;;;17.48;6.32;;;7.80;99.90;;;;;;5108956;23;20156;-92
2023/03/11 19:44:16;;;;;;;13.70;5.43;;;7.80;99.90;;;;;;5060823;23;20137;-92
2023/03/11 19:46:20;;;;;;;18.17;5.55;;;7.60;99.90;;;;;;5074972;23;20157;-91
2023/03/11 19:48:21;;;;;;;25.17;6.13;;;7.70;99.90;;;;;;5054578;23;20154;-92
2023/03/11 19:50:25;;;;;;;17.05;5.95;;;7.70;99.90;;;;;;5058223;23;20162;-92
2023/03/11 19:52:25;;;;;;;14.50;5.70;;;7.80;99.90;;;;;;5059297;23;20194;-91
2023/03/11 19:54:30;;;;;;;12.75;5.53;;;7.70;99.90;;;;;;5083870;23;20197;-92
2023/03/11 19:56:31;;;;;;;10.32;4.88;;;7.70;99.90;;;;;;5057814;23;20162;-92
2023/03/11 19:58:32;;;;;;;16.38;4.75;;;7.70;99.90;;;;;;5061841;23;20222;-93
2023/03/11 20:00:33;;;;;;;15.95;5.22;;;7.50;99.90;;;;;;5056940;23;20154;-92